Jackson, WY

7:01 AM MDT on October 25, 2014 (GMT -0600)
APRSWXNET Jackson WY US | Change Station
CLOSE
Current Station
Personal Weather Station
Location: Jackson, WY
Elevation: 6247 ft
Nearby Weather Stations

Elev 6247 ft 43.48 °N, 110.76 °W | Updated 29 minutes ago

Clear
Clear
27 °F
Feels Like 27 °F
N
0
Wind Variable Wind from East
Gusts 0.0 mph

Today
High -- | Low -- °F
--% Chance of Precip.
Yesterday
High -- | Low -- °F
Precip. -- in
7:49 AM 6:24 PM
Waxing Crescent, 3% visible
Pressure 30.21 in
Visibility 10.0 miles
Clouds Clear
Windchill 27 °F
Dew Point 22 °F
Humidity 80%
Rainfall 0.00 in
Snow Depth 0 in
UV 0 out of 12
Pollen 3.20 out of 12
Air Quality Not available.
Flu Activity Sporadic
METAR KJAC 251251Z 01005KT 10SM CLR M03/M04 A3021

More Conditions Fewer Conditions

Pressure 30.21 in
Visibility 10.0 miles
Clouds Clear
Windchill 27 °F
Dew Point 22 °F
Humidity 80%
Rainfall 0.00 in
Snow Depth 0 in
UV 0 out of 12
Pollen 3.20 out of 12
Air Quality Not available.
Flu Activity Sporadic
METAR KJAC 251251Z 01005KT 10SM CLR M03/M04 A3021

More Conditions Fewer Conditions

10-Day Weather Forecast

Almanac

Astronomy

Oct. 25, 2014 Rise Set
Actual Time 7:49 AM MDT 6:24 PM MDT
Civil Twilight 7:20 AM MDT 6:53 PM MDT
Nautical Twilight 6:46 AM MDT 7:26 PM MDT
Astronomical Twilight 6:13 AM MDT 7:59 PM MDT
Moon 9:34 AM MDT 7:47 PM MDT
Length of Visible Light 11h 32m
Length of Day
10h 34m
Tomorrow will be 2m 45s shorter.
Waxing Crescent, 3% of the Moon is Illuminated
Today
Waxing Crescent
Oct 30
First Quarter
Nov 6
Full
Nov 14
Last Quarter
Nov 22
New

Today's Extremes

State Highs State Lows

Community

WunderPhotos

Upload Photos

1,764,824 photos uploaded!

Nearby

Snow Depth

Station Depth Elevation
Phillips Bench 0 in 8200 ft
Granite Creek 0 in 6770 ft
Gros Ventre Summit 2 in 8750 ft
Base Camp 0 in 7030 ft
Blind Bull Summit 0 in 8900 ft

Earthquake Activity

City Distance Mag. Time & Date
No recent earthquake activity has been reported nearby.
Minimum magnitude displayed is 2.5.

Coastal Water Temperatures

Place Temperature
No Stations Reporting

Nearby Weather Stations